Time;durP1;ratioP1;P1;durP2;ratioP2;P2;SDS_P1;SDS_P2;PMS_P1;PMS_P2;Temp;Humidity;BMP_temperature;BMP_pressure;BME280_temperature;BME280_humidity;BME280_pressure;Samples;Min_cycle;Max_cycle;Signal;HPM_P1;HPM_P2
2023/09/28 00:00:51;;;;;;;1.58;1.48;;;;;;;15.22;98.87;98606.63;4139355;28;20622;-46
2023/09/28 00:02:53;;;;;;;2.47;1.30;;;;;;;15.24;98.50;98605.22;4155202;28;20303;-46
2023/09/28 00:04:56;;;;;;;1.42;1.10;;;;;;;15.31;98.63;98607.69;4139183;28;20213;-45
2023/09/28 00:06:58;;;;;;;1.15;1.05;;;;;;;15.32;97.67;98617.66;4143479;28;20217;-46
2023/09/28 00:09:00;;;;;;;6.22;1.95;;;;;;;15.32;98.10;98615.75;4134716;28;20221;-45
2023/09/28 00:11:03;;;;;;;1.40;1.20;;;;;;;15.34;99.18;98608.00;4151821;28;20615;-46
2023/09/28 00:13:05;;;;;;;1.50;1.40;;;;;;;15.31;99.14;98611.25;4152439;28;20213;-47
2023/09/28 00:15:08;;;;;;;1.25;1.02;;;;;;;15.32;99.45;98618.50;4153021;28;20229;-45
2023/09/28 00:17:10;;;;;;;2.00;1.80;;;;;;;15.22;100.00;98607.44;4139774;28;20228;-46
2023/09/28 00:19:12;;;;;;;1.80;1.58;;;;;;;15.09;100.00;98613.50;4136828;28;20723;-46
2023/09/28 00:21:13;;;;;;;3.20;1.45;;;;;;;15.07;100.00;98621.22;4154425;28;20200;-46
2023/09/28 00:23:17;;;;;;;1.50;1.40;;;;;;;15.11;100.00;98622.31;4138517;28;20205;-46
2023/09/28 00:25:19;;;;;;;1.27;1.17;;;;;;;15.17;100.00;98626.72;4151735;28;20263;-45
2023/09/28 00:27:21;;;;;;;2.17;1.65;;;;;;;15.24;100.00;98616.25;4134828;28;20264;-45
2023/09/28 00:29:23;;;;;;;1.20;1.10;;;;;;;15.21;100.00;98611.28;4154544;28;20657;-45
2023/09/28 00:31:25;;;;;;;1.30;1.20;;;;;;;15.16;100.00;98614.03;4139118;28;20217;-45
2023/09/28 00:33:27;;;;;;;1.40;1.20;;;;;;;15.19;100.00;98609.91;4139231;28;20210;-45
2023/09/28 00:35:29;;;;;;;1.20;1.20;;;;;;;15.15;100.00;98612.41;4154212;28;20858;-45
2023/09/28 00:37:32;;;;;;;1.27;1.17;;;;;;;15.14;100.00;98604.41;4150469;28;20680;-45
2023/09/28 00:39:35;;;;;;;1.83;1.30;;;;;;;15.12;100.00;98604.69;4154347;28;20212;-45
2023/09/28 00:41:36;;;;;;;1.55;1.38;;;;;;;15.21;100.00;98605.78;4151810;28;20209;-47
2023/09/28 00:43:38;;;;;;;6.30;1.65;;;;;;;15.16;100.00;98603.03;4137061;28;20221;-45
2023/09/28 00:45:41;;;;;;;2.17;1.40;;;;;;;15.15;100.00;98601.38;4137644;28;20779;-46
2023/09/28 00:47:43;;;;;;;2.08;1.48;;;;;;;15.10;100.00;98597.81;4151217;28;20212;-47
2023/09/28 00:49:46;;;;;;;8.43;1.20;;;;;;;15.08;100.00;98605.50;4120865;28;20214;-46
2023/09/28 00:51:48;;;;;;;1.30;1.10;;;;;;;15.07;100.00;98604.69;4134532;28;20333;-46
2023/09/28 00:53:50;;;;;;;1.50;1.30;;;;;;;15.10;100.00;98612.41;4152187;28;20267;-45
2023/09/28 00:55:53;;;;;;;1.92;1.73;;;;;;;15.14;100.00;98610.75;4137284;28;20228;-47
2023/09/28 00:58:01;;;;;;;1.55;1.45;;;;;;;15.11;100.00;98618.75;4125145;28;20289;-45
2023/09/28 01:00:18;;;;;;;1.92;1.65;;;;;;;15.05;100.00;98622.59;4150820;28;20412;-45
2023/09/28 01:02:21;;;;;;;2.05;1.88;;;;;;;15.25;100.00;98628.94;4131545;28;20213;-45
2023/09/28 01:04:22;;;;;;;1.75;1.63;;;;;;;15.11;100.00;98627.81;4151247;28;20289;-45
2023/09/28 01:06:24;;;;;;;6.38;1.50;;;;;;;14.95;100.00;98620.69;4150039;28;20275;-45
2023/09/28 01:08:26;;;;;;;3.05;1.55;;;;;;;14.91;100.00;98616.81;4150889;28;20275;-46
2023/09/28 01:10:29;;;;;;;1.50;1.40;;;;;;;14.84;100.00;98621.75;4134279;28;20232;-46
2023/09/28 01:12:31;;;;;;;1.63;1.20;;;;;;;14.98;100.00;98617.38;4154627;28;20210;-46
2023/09/28 01:14:34;;;;;;;2.58;1.70;;;;;;;14.91;100.00;98614.06;4151629;28;20212;-46
2023/09/28 01:16:36;;;;;;;2.25;2.10;;;;;;;14.80;100.00;98604.16;4153292;28;20286;-46
2023/09/28 01:18:39;;;;;;;1.95;1.75;;;;;;;14.64;100.00;98598.91;4140606;28;20932;-45
2023/09/28 01:20:47;;;;;;;1.90;1.70;;;;;;;14.55;100.00;98593.09;4133678;28;20216;-45
2023/09/28 01:22:49;;;;;;;1.75;1.60;;;;;;;14.53;100.00;98581.53;4150116;28;20213;-45
2023/09/28 01:24:51;;;;;;;1.95;1.77;;;;;;;14.61;100.00;98610.44;4134625;28;20217;-45
2023/09/28 01:26:53;;;;;;;1.77;1.67;;;;;;;14.77;100.00;98637.75;4153916;28;20234;-47
2023/09/28 01:28:55;;;;;;;2.17;1.40;;;;;;;14.87;100.00;98631.41;4141196;28;20214;-45
2023/09/28 01:30:56;;;;;;;1.63;1.50;;;;;;;14.95;100.00;98625.34;4153622;28;20224;-45
2023/09/28 01:32:58;;;;;;;1.85;1.45;;;;;;;14.87;100.00;98637.75;4140994;28;20213;-46
2023/09/28 01:35:01;;;;;;;1.83;1.48;;;;;;;14.88;100.00;98639.41;4137318;28;20233;-47
2023/09/28 01:37:03;;;;;;;1.90;1.70;;;;;;;14.94;100.00;98638.31;4134696;28;21204;-46
2023/09/28 01:39:07;;;;;;;2.55;1.52;;;;;;;14.91;100.00;98627.03;4137985;28;20293;-45
2023/09/28 01:41:11;;;;;;;5.55;1.60;;;;;;;14.88;100.00;98639.41;4118921;28;20206;-45
2023/09/28 01:43:13;;;;;;;2.20;2.00;;;;;;;14.62;100.00;98618.44;4136322;28;20216;-47
2023/09/28 01:45:15;;;;;;;1.88;1.70;;;;;;;14.61;100.00;98616.78;4119681;28;20241;-46
2023/09/28 01:47:17;;;;;;;1.40;1.30;;;;;;;14.59;100.00;98616.25;4134450;28;20249;-45
2023/09/28 01:49:18;;;;;;;1.58;1.48;;;;;;;14.65;100.00;98628.94;4119015;28;20678;-47
2023/09/28 01:51:22;;;;;;;2.40;2.22;;;;;;;14.76;100.00;98625.06;4119854;28;20360;-46
2023/09/28 01:53:24;;;;;;;1.60;1.50;;;;;;;14.88;100.00;98633.91;4118830;28;20298;-46
2023/09/28 01:55:26;;;;;;;2.17;1.98;;;;;;;14.87;100.00;98632.25;4126199;28;20222;-45
2023/09/28 01:57:28;;;;;;;1.52;1.35;;;;;;;14.90;100.00;98639.16;4137251;28;20264;-45
2023/09/28 01:59:31;;;;;;;1.83;1.73;;;;;;;14.97;100.00;98631.44;4134964;28;20217;-45
2023/09/28 02:01:32;;;;;;;1.83;1.70;;;;;;;15.00;100.00;98631.72;4135713;28;20210;-47
2023/09/28 02:03:34;;;;;;;2.05;1.77;;;;;;;14.64;100.00;98627.25;4136560;28;20201;-46
2023/09/28 02:05:37;;;;;;;1.25;1.15;;;;;;;14.68;100.00;98627.53;4120502;28;20313;-45
2023/09/28 02:07:39;;;;;;;1.58;1.50;;;;;;;14.93;100.00;98635.84;4124337;28;20292;-46
2023/09/28 02:09:41;;;;;;;2.63;1.65;;;;;;;14.83;100.00;98639.41;4127720;28;20662;-47
2023/09/28 02:11:43;;;;;;;2.00;1.60;;;;;;;14.79;100.00;98649.34;4135002;28;20766;-47
2023/09/28 02:13:45;;;;;;;2.38;1.40;;;;;;;14.81;100.00;98643.53;4121293;28;20202;-46
2023/09/28 02:15:47;;;;;;;3.20;1.98;;;;;;;14.85;100.00;98651.00;4117801;28;20222;-46
2023/09/28 02:17:49;;;;;;;1.67;1.58;;;;;;;14.86;100.00;98641.63;4135075;28;20240;-45
2023/09/28 02:19:51;;;;;;;1.88;1.67;;;;;;;14.85;100.00;98645.50;4121062;28;20214;-46
2023/09/28 02:21:53;;;;;;;1.40;1.30;;;;;;;15.03;100.00;98636.66;4134991;28;20849;-47
2023/09/28 02:23:55;;;;;;;4.32;1.58;;;;;;;14.76;100.00;98646.31;4120671;28;21041;-46
2023/09/28 02:26:05;;;;;;;3.33;1.70;;;;;;;14.68;100.00;98639.41;4135149;28;20312;-46
2023/09/28 02:28:07;;;;;;;4.22;1.75;;;;;;;14.71;100.00;98647.09;4128238;28;20577;-45
2023/09/28 02:30:11;;;;;;;2.10;2.00;;;;;;;14.75;100.00;98645.47;4139991;28;20326;-46
2023/09/28 02:32:13;;;;;;;1.50;1.40;;;;;;;14.84;100.00;98643.81;4123424;28;20221;-48
2023/09/28 02:34:15;;;;;;;1.23;1.13;;;;;;;14.85;100.00;98639.97;4122171;28;20682;-46
2023/09/28 02:36:17;;;;;;;1.65;1.55;;;;;;;14.85;100.00;98637.22;4124264;28;20978;-47
2023/09/28 02:38:19;;;;;;;2.17;1.95;;;;;;;14.84;100.00;98638.28;4119996;28;20297;-45
2023/09/28 02:40:22;;;;;;;1.63;1.52;;;;;;;14.84;100.00;98643.00;4153364;28;20209;-47
2023/09/28 02:42:24;;;;;;;1.55;1.38;;;;;;;14.85;100.00;98642.72;4138452;28;20198;-46
2023/09/28 02:44:25;;;;;;;2.00;1.65;;;;;;;14.90;100.00;98636.41;4151699;28;20213;-46
2023/09/28 02:46:27;;;;;;;2.45;1.50;;;;;;;14.95;100.00;98639.97;4154362;28;20225;-46
2023/09/28 02:48:29;;;;;;;1.50;1.40;;;;;;;14.78;100.00;98644.09;4152148;28;20209;-46
2023/09/28 02:50:31;;;;;;;1.98;1.35;;;;;;;14.77;100.00;98645.19;4137452;28;20216;-46
2023/09/28 02:52:33;;;;;;;1.40;1.27;;;;;;;14.76;100.00;98646.31;4139248;28;20902;-47
2023/09/28 02:54:35;;;;;;;1.95;1.85;;;;;;;14.77;100.00;98648.75;4138256;28;20206;-46
2023/09/28 02:56:37;;;;;;;3.08;1.42;;;;;;;14.74;100.00;98638.31;4155806;28;20319;-47
2023/09/28 02:58:38;;;;;;;1.50;1.38;;;;;;;14.77;100.00;98642.44;4153017;28;20216;-46
2023/09/28 03:00:40;;;;;;;1.60;1.50;;;;;;;14.74;100.00;98648.47;4136540;28;20213;-47
2023/09/28 03:02:42;;;;;;;2.08;1.88;;;;;;;14.81;100.00;98643.53;4152743;28;20258;-46
2023/09/28 03:04:44;;;;;;;1.75;1.30;;;;;;;14.79;100.00;98657.59;4153194;28;20205;-47
2023/09/28 03:06:46;;;;;;;1.60;1.30;;;;;;;14.75;100.00;98650.97;4138571;28;20292;-46
2023/09/28 03:08:48;;;;;;;1.77;1.67;;;;;;;14.73;100.00;98647.66;4142544;28;20643;-46
2023/09/28 03:10:51;;;;;;;1.95;1.75;;;;;;;14.72;100.00;98651.53;4156039;28;20523;-47
2023/09/28 03:12:52;;;;;;;2.33;1.23;;;;;;;14.72;100.00;98653.44;4153905;28;20624;-47
2023/09/28 03:14:54;;;;;;;1.80;1.70;;;;;;;14.72;100.00;98640.50;4141946;28;20198;-46
2023/09/28 03:16:56;;;;;;;4.00;1.30;;;;;;;14.75;100.00;98645.47;4139908;28;20698;-47
2023/09/28 03:18:58;;;;;;;1.63;1.52;;;;;;;14.74;100.00;98635.53;4135148;28;20220;-45
2023/09/28 03:21:00;;;;;;;1.45;1.33;;;;;;;14.69;100.00;98630.03;4154499;28;20620;-47
2023/09/28 03:23:02;;;;;;;2.40;1.73;;;;;;;14.66;100.00;98636.09;4139883;28;20209;-46
2023/09/28 03:25:10;;;;;;;1.63;1.48;;;;;;;14.67;100.00;98629.47;4152866;28;20391;-45
2023/09/28 03:27:11;;;;;;;1.40;1.25;;;;;;;14.68;100.00;98628.38;4137592;28;20205;-46
2023/09/28 03:29:13;;;;;;;1.95;1.75;;;;;;;14.67;100.00;98632.22;4137549;28;20205;-46
2023/09/28 03:31:15;;;;;;;2.33;1.48;;;;;;;14.65;100.00;98631.69;4140182;28;20229;-46
2023/09/28 03:33:17;;;;;;;1.55;1.30;;;;;;;14.57;100.00;98636.91;4140458;28;20704;-47
2023/09/28 03:35:19;;;;;;;1.30;1.20;;;;;;;14.57;100.00;98636.91;4144378;28;20229;-47
2023/09/28 03:37:22;;;;;;;1.98;1.40;;;;;;;14.57;100.00;98643.22;4154328;28;20218;-46
2023/09/28 03:39:24;;;;;;;1.92;1.58;;;;;;;14.59;100.00;98635.53;4136512;28;20739;-46
2023/09/28 03:41:27;;;;;;;1.77;1.55;;;;;;;14.61;100.00;98644.34;4136895;28;20295;-46
2023/09/28 03:43:29;;;;;;;1.40;1.30;;;;;;;14.62;100.00;98632.22;4139586;28;20209;-46
2023/09/28 03:45:31;;;;;;;2.45;1.80;;;;;;;14.48;100.00;98627.50;4139371;28;20275;-46
2023/09/28 03:47:33;;;;;;;1.70;1.60;;;;;;;14.31;100.00;98633.25;4137749;28;20223;-47
2023/09/28 03:49:34;;;;;;;8.27;1.65;;;;;;;14.33;100.00;98642.06;4151067;28;20200;-47
2023/09/28 03:51:36;;;;;;;2.88;1.85;;;;;;;14.38;100.00;98644.81;4144108;28;20225;-47
2023/09/28 03:53:39;;;;;;;1.88;1.77;;;;;;;14.42;100.00;98645.94;4143049;28;20665;-45
2023/09/28 03:55:42;;;;;;;2.47;1.58;;;;;;;14.47;100.00;98640.47;4156488;28;20705;-45
2023/09/28 03:57:44;;;;;;;1.85;1.75;;;;;;;14.48;100.00;98639.34;4138110;28;20206;-47
2023/09/28 03:59:46;;;;;;;2.15;1.95;;;;;;;14.47;100.00;98643.22;4154691;28;20208;-46
2023/09/28 04:01:48;;;;;;;2.72;1.75;;;;;;;14.49;100.00;98643.75;4139842;28;20210;-45
2023/09/28 04:03:50;;;;;;;4.38;1.73;;;;;;;14.48;100.00;98639.34;4141467;28;20727;-47
2023/09/28 04:05:52;;;;;;;2.58;2.03;;;;;;;14.50;100.00;98642.66;4154042;28;20270;-46
2023/09/28 04:07:54;;;;;;;2.30;1.65;;;;;;;14.43;100.00;98646.78;4138618;28;20245;-45
2023/09/28 04:09:55;;;;;;;2.13;1.80;;;;;;;14.39;100.00;98642.91;4142133;28;20661;-48
2023/09/28 04:11:57;;;;;;;2.25;2.05;;;;;;;14.38;100.00;98639.31;4136625;28;20237;-46
2023/09/28 04:14:01;;;;;;;1.73;1.63;;;;;;;14.42;100.00;98637.69;4152534;28;21066;-45
2023/09/28 04:16:03;;;;;;;1.50;1.40;;;;;;;14.43;100.00;98636.59;4153446;28;20279;-46
2023/09/28 04:18:05;;;;;;;1.50;1.40;;;;;;;14.40;100.00;98631.63;4138341;28;20206;-47
2023/09/28 04:20:09;;;;;;;1.60;1.50;;;;;;;14.36;100.00;98636.00;4138717;28;20238;-46
2023/09/28 04:22:11;;;;;;;2.53;1.52;;;;;;;14.35;100.00;98634.38;4137089;28;20603;-47
2023/09/28 04:24:13;;;;;;;2.42;1.70;;;;;;;14.35;100.00;98634.38;4142822;28;20381;-47
2023/09/28 04:26:15;;;;;;;1.63;1.52;;;;;;;14.36;100.00;98641.53;4139347;28;20233;-47
2023/09/28 04:28:17;;;;;;;1.80;1.70;;;;;;;14.38;100.00;98660.53;4153020;28;20205;-47
2023/09/28 04:30:19;;;;;;;2.03;1.70;;;;;;;14.38;100.00;98650.31;4137394;28;20241;-46
2023/09/28 04:32:24;;;;;;;1.85;1.75;;;;;;;14.43;100.00;98661.38;4151221;28;20236;-46
2023/09/28 04:34:26;;;;;;;1.45;1.15;;;;;;;14.37;100.00;98651.44;4150535;28;20963;-46
2023/09/28 04:36:28;;;;;;;1.85;1.63;;;;;;;14.28;100.00;98650.31;4151427;28;20232;-46
2023/09/28 04:38:30;;;;;;;2.17;1.75;;;;;;;14.27;100.00;98659.66;4140854;28;20209;-47
2023/09/28 04:40:31;;;;;;;2.05;1.88;;;;;;;14.22;100.00;98659.66;4138981;28;20206;-47
2023/09/28 04:42:33;;;;;;;2.58;2.33;;;;;;;14.22;100.00;98659.66;4135897;28;20214;-48
2023/09/28 04:44:35;;;;;;;2.20;2.00;;;;;;;14.25;100.00;98653.63;4152352;28;20623;-46
2023/09/28 04:46:36;;;;;;;2.38;2.17;;;;;;;14.18;100.00;98661.28;4152552;28;20708;-46
2023/09/28 04:48:38;;;;;;;1.88;1.55;;;;;;;14.17;100.00;98667.84;4142451;28;20209;-47
2023/09/28 04:50:40;;;;;;;1.88;1.73;;;;;;;14.21;100.00;98671.75;4136308;28;20665;-46
2023/09/28 04:52:43;;;;;;;2.45;1.50;;;;;;;14.13;100.00;98668.66;4153327;28;20228;-47
2023/09/28 04:54:45;;;;;;;1.42;1.30;;;;;;;14.18;100.00;98680.53;4154867;28;20213;-46
2023/09/28 04:56:47;;;;;;;2.13;1.75;;;;;;;14.14;100.00;98693.16;4151645;28;20247;-45
2023/09/28 04:58:49;;;;;;;1.85;1.67;;;;;;;14.09;100.00;98684.06;4140039;28;20261;-46
2023/09/28 05:00:51;;;;;;;2.45;1.55;;;;;;;14.11;100.00;98685.44;4150061;28;20205;-47
2023/09/28 05:02:53;;;;;;;1.42;1.33;;;;;;;14.06;100.00;98674.44;4149603;28;20215;-46
2023/09/28 05:04:55;;;;;;;1.98;1.80;;;;;;;14.19;100.00;98665.72;4133506;28;20214;-46
2023/09/28 05:06:59;;;;;;;1.90;1.73;;;;;;;14.07;100.00;98675.22;4137534;28;20227;-47
2023/09/28 05:09:01;;;;;;;2.03;1.50;;;;;;;14.00;100.00;98686.50;4137536;28;20651;-47
2023/09/28 05:11:02;;;;;;;2.35;2.15;;;;;;;14.00;100.00;98681.00;4135976;28;20224;-46
2023/09/28 05:13:04;;;;;;;1.80;1.70;;;;;;;13.96;100.00;98688.13;4149144;28;20233;-46
2023/09/28 05:15:08;;;;;;;2.67;1.98;;;;;;;13.91;100.00;98688.09;4148952;28;20328;-46
2023/09/28 05:17:11;;;;;;;2.15;1.90;;;;;;;13.95;100.00;98693.88;4131568;28;20205;-46
2023/09/28 05:19:12;;;;;;;1.73;1.63;;;;;;;13.94;100.00;98686.72;4139975;28;20212;-46
2023/09/28 05:21:14;;;;;;;2.17;1.77;;;;;;;13.87;100.00;98692.47;4150201;28;20262;-46
2023/09/28 05:23:16;;;;;;;2.78;1.70;;;;;;;13.97;100.00;98681.50;4150927;28;20286;-46
2023/09/28 05:25:18;;;;;;;3.47;2.03;;;;;;;13.60;100.00;98674.44;4137143;28;20324;-47
2023/09/28 05:27:19;;;;;;;2.53;2.10;;;;;;;13.49;100.00;98684.53;4135642;28;20208;-46
2023/09/28 05:29:22;;;;;;;2.97;2.10;;;;;;;13.62;100.00;98695.06;4140620;28;20608;-47
2023/09/28 05:31:25;;;;;;;2.63;1.83;;;;;;;13.77;100.00;98703.41;4134490;28;20228;-47
2023/09/28 05:33:28;;;;;;;2.30;2.10;;;;;;;13.72;100.00;98703.41;4150238;28;20319;-46
2023/09/28 05:35:30;;;;;;;8.15;1.95;;;;;;;13.69;100.00;98694.84;4122685;28;20238;-47
2023/09/28 05:37:32;;;;;;;2.17;2.03;;;;;;;13.68;100.00;98707.78;4133515;28;20429;-45
2023/09/28 05:39:33;;;;;;;4.95;2.08;;;;;;;13.73;100.00;98696.81;4134572;28;20284;-48
2023/09/28 05:41:36;;;;;;;3.15;2.65;;;;;;;13.74;100.00;98703.97;4151146;28;20247;-46
2023/09/28 05:43:38;;;;;;;2.80;2.58;;;;;;;13.71;100.00;98709.97;4120609;28;20670;-46
2023/09/28 05:45:39;;;;;;;4.28;2.50;;;;;;;13.73;100.00;98707.81;4134278;28;20288;-45
2023/09/28 05:47:41;;;;;;;2.00;1.80;;;;;;;13.71;100.00;98712.72;4139768;28;20608;-46
2023/09/28 05:49:43;;;;;;;1.75;1.58;;;;;;;13.72;100.00;98711.66;4149581;28;20206;-47
2023/09/28 05:51:45;;;;;;;2.05;1.95;;;;;;;13.84;100.00;98719.69;4151542;28;20231;-45
2023/09/28 05:53:50;;;;;;;2.17;1.30;;;;;;;13.74;100.00;98720.47;4134183;28;20212;-46
2023/09/28 05:55:52;;;;;;;1.98;1.77;;;;;;;13.65;100.00;98727.56;4135142;28;20831;-46
2023/09/28 05:57:54;;;;;;;1.50;1.40;;;;;;;13.66;100.00;98736.63;4150165;28;20698;-47
2023/09/28 05:59:56;;;;;;;2.08;1.70;;;;;;;13.64;100.00;98736.88;4150774;28;20201;-46
2023/09/28 06:02:00;;;;;;;1.70;1.60;;;;;;;13.67;100.00;98735.53;4135660;28;20312;-45
2023/09/28 06:04:04;;;;;;;3.13;2.92;;;;;;;13.66;100.00;98740.22;4134920;28;20205;-46
2023/09/28 06:06:17;;;;;;;2.63;1.50;;;;;;;13.69;100.00;98739.66;4134719;28;20233;-47
2023/09/28 06:08:19;;;;;;;2.63;1.92;;;;;;;13.78;100.00;98738.06;4134590;28;20641;-46
2023/09/28 06:10:21;;;;;;;2.15;1.95;;;;;;;13.69;100.00;98745.16;4133742;28;20744;-46
2023/09/28 06:12:23;;;;;;;1.70;1.60;;;;;;;13.65;100.00;98743.22;4134804;28;20598;-47
2023/09/28 06:14:24;;;;;;;1.77;1.67;;;;;;;13.69;100.00;98752.63;4150561;28;20729;-46
2023/09/28 06:16:27;;;;;;;1.60;1.50;;;;;;;13.72;100.00;98741.06;4130492;28;20291;-46
2023/09/28 06:18:29;;;;;;;2.50;2.03;;;;;;;13.73;100.00;98739.97;4133629;28;20209;-46
2023/09/28 06:20:33;;;;;;;5.32;3.22;;;;;;;13.78;100.00;98751.00;4139186;28;20276;-46
2023/09/28 06:22:40;;;;;;;5.20;2.65;;;;;;;13.89;100.00;98750.81;4150138;28;20208;-46
2023/09/28 06:24:42;;;;;;;2.58;1.90;;;;;;;14.08;100.00;98760.28;4139813;28;20209;-47
2023/09/28 06:26:44;;;;;;;2.70;2.47;;;;;;;14.27;100.00;98764.28;4133101;28;20218;-45
2023/09/28 06:28:48;;;;;;;5.53;2.13;;;;;;;14.51;100.00;98768.22;4135412;28;20306;-48
2023/09/28 06:30:54;;;;;;;2.95;2.20;;;;;;;14.79;100.00;98756.78;4151737;28;20213;-47
2023/09/28 06:32:56;;;;;;;2.17;2.00;;;;;;;14.99;100.00;98756.84;4137371;28;20218;-49
2023/09/28 06:34:58;;;;;;;2.60;2.40;;;;;;;15.10;100.00;98768.72;4153602;28;20719;-47
2023/09/28 06:37:00;;;;;;;2.80;2.60;;;;;;;15.81;100.00;98765.72;4151515;28;20696;-48
2023/09/28 06:39:04;;;;;;;2.65;2.45;;;;;;;16.47;100.00;98769.19;4137976;28;20221;-49
2023/09/28 06:41:06;;;;;;;3.60;2.70;;;;;;;16.44;98.71;98775.31;4135534;28;20296;-47
2023/09/28 06:43:08;;;;;;;8.32;2.15;;;;;;;16.94;98.83;98775.91;4136221;28;20713;-47
2023/09/28 06:45:11;;;;;;;3.17;2.88;;;;;;;17.27;94.61;98776.00;4147276;28;20232;-46
2023/09/28 06:47:16;;;;;;;2.88;2.17;;;;;;;16.82;95.07;98780.94;4150223;28;20297;-48
2023/09/28 06:49:18;;;;;;;6.40;2.78;;;;;;;16.77;95.05;98780.94;4138433;28;20293;-47
2023/09/28 06:51:21;;;;;;;10.80;2.58;;;;;;;16.67;97.15;98792.06;4135642;28;20595;-47
2023/09/28 06:53:24;;;;;;;3.65;2.28;;;;;;;17.22;96.56;98794.53;4149258;28;20237;-47
2023/09/28 06:55:29;;;;;;;6.80;2.33;;;;;;;17.87;91.64;98796.88;4149346;28;20598;-46
2023/09/28 06:57:33;;;;;;;4.43;2.83;;;;;;;17.38;91.25;98782.31;4150314;28;20617;-46
2023/09/28 06:59:35;;;;;;;7.85;2.30;;;;;;;17.17;92.36;98775.19;4136196;28;20208;-46
2023/09/28 07:01:40;;;;;;;3.03;1.90;;;;;;;16.98;94.19;98787.22;4122932;28;20206;-45
2023/09/28 07:03:43;;;;;;;2.42;2.22;;;;;;;16.98;94.38;98780.56;4137356;28;20676;-47
2023/09/28 07:05:45;;;;;;;3.88;3.60;;;;;;;17.43;93.74;98779.50;4134989;28;20639;-46
2023/09/28 07:07:47;;;;;;;7.15;2.17;;;;;;;17.32;93.30;98783.44;4135511;28;20206;-46
2023/09/28 07:09:51;;;;;;;2.63;2.42;;;;;;;17.45;94.28;98780.06;4147495;28;20205;-45
2023/09/28 07:11:58;;;;;;;2.33;2.05;;;;;;;17.53;92.85;98774.69;4148056;28;20218;-46
2023/09/28 07:14:00;;;;;;;2.85;2.25;;;;;;;17.62;93.31;98775.75;4146215;28;20221;-46
2023/09/28 07:16:03;;;;;;;7.80;2.28;;;;;;;18.21;89.94;98781.03;4138808;28;20627;-46
2023/09/28 07:18:06;;;;;;;2.10;1.90;;;;;;;18.31;90.25;98775.44;4142263;28;20204;-46
2023/09/28 07:20:09;;;;;;;7.00;2.72;;;;;;;18.58;89.93;98778.44;4155034;28;20762;-47
2023/09/28 07:22:12;;;;;;;4.20;3.50;;;;;;;18.78;88.49;98783.75;4120671;28;20297;-46
2023/09/28 07:24:14;;;;;;;11.43;3.15;;;;;;;20.05;83.46;98779.59;4139498;28;20297;-46
2023/09/28 07:26:27;;;;;;;16.65;2.38;;;;;;;21.02;78.08;98784.69;4142362;28;20225;-46
2023/09/28 07:28:35;;;;;;;2.72;2.17;;;;;;;21.48;74.26;98792.84;4138686;28;20215;-46
2023/09/28 07:30:38;;;;;;;2.50;2.00;;;;;;;22.21;70.90;98810.00;4145173;28;20213;-46
2023/09/28 07:32:47;;;;;;;4.82;1.60;;;;;;;22.26;68.57;98812.66;4155141;28;20238;-47
2023/09/28 07:34:55;;;;;;;10.70;1.27;;;;;;;22.72;67.83;98801.97;4138789;28;20204;-46
2023/09/28 07:36:57;;;;;;;2.50;2.00;;;;;;;23.16;64.99;98813.00;4155455;28;20208;-46
2023/09/28 07:38:59;;;;;;;8.45;1.60;;;;;;;23.52;63.77;98808.81;4146418;28;20220;-46
2023/09/28 07:41:02;;;;;;;1.40;1.30;;;;;;;23.18;65.06;98816.28;4149062;28;20208;-47
2023/09/28 07:43:04;;;;;;;2.00;1.80;;;;;;;23.39;64.52;98818.16;4154812;28;20294;-47
2023/09/28 07:45:06;;;;;;;10.63;1.92;;;;;;;23.54;63.47;98802.88;4156450;28;20229;-47
2023/09/28 07:47:08;;;;;;;2.63;1.40;;;;;;;23.59;64.90;98799.91;4154842;28;20666;-47
2023/09/28 07:49:20;;;;;;;1.55;1.42;;;;;;;23.94;63.83;98808.03;4122109;28;20625;-47
2023/09/28 07:51:25;;;;;;;27.33;1.70;;;;;;;24.27;62.25;98812.75;4138370;28;20573;-48
2023/09/28 07:53:28;;;;;;;10.63;2.35;;;;;;;24.02;62.65;98810.81;4139537;28;20321;-47
2023/09/28 07:55:30;;;;;;;16.40;3.17;;;;;;;23.85;62.89;98810.78;4155705;28;20232;-46
2023/09/28 07:57:32;;;;;;;2.15;1.95;;;;;;;24.07;63.13;98819.03;4145898;28;20217;-51
2023/09/28 07:59:54;;;;;;;8.40;2.50;;;;;;;24.53;61.70;98810.72;4153129;28;20620;-46
2023/09/28 08:01:56;;;;;;;4.95;1.58;;;;;;;24.36;62.94;98816.38;4148277;28;20200;-47
2023/09/28 08:04:07;;;;;;;6.25;2.38;;;;;;;24.57;62.23;98810.91;4153849;28;20242;-48
2023/09/28 08:06:10;;;;;;;4.75;1.83;;;;;;;25.07;59.99;98804.25;4139790;28;20223;-45
2023/09/28 08:08:30;;;;;;;3.88;1.25;;;;;;;25.24;58.55;98807.03;4151788;28;20200;-46
2023/09/28 08:10:33;;;;;;;3.53;2.03;;;;;;;25.00;60.31;98803.97;4142332;28;20246;-50
2023/09/28 08:12:36;;;;;;;2.33;1.45;;;;;;;24.93;59.30;98820.47;4145120;28;20208;-47
2023/09/28 08:14:39;;;;;;;3.30;1.30;;;;;;;24.04;62.48;98819.69;4144309;28;20208;-45
2023/09/28 08:16:45;;;;;;;4.10;1.60;;;;;;;24.79;60.66;98825.47;4137635;28;20310;-46
2023/09/28 08:18:48;;;;;;;3.15;1.42;;;;;;;25.20;58.49;98822.00;4144807;28;20707;-46
2023/09/28 08:20:51;;;;;;;6.20;1.13;;;;;;;24.64;60.86;98826.03;4139297;28;20208;-46
2023/09/28 08:23:11;;;;;;;1.33;1.05;;;;;;;23.56;60.99;98812.56;4152507;28;20275;-49
2023/09/28 08:25:14;;;;;;;1.17;1.00;;;;;;;23.47;62.91;98830.47;4123557;28;20233;-46
2023/09/28 08:27:16;;;;;;;2.13;1.25;;;;;;;23.07;62.95;98826.06;4137614;28;20569;-47
2023/09/28 08:29:18;;;;;;;2.42;1.63;;;;;;;23.34;62.37;98823.88;4152846;28;20212;-46
2023/09/28 08:31:20;;;;;;;2.22;1.17;;;;;;;24.11;62.24;98825.59;4134377;28;20244;-46
2023/09/28 08:33:22;;;;;;;6.28;0.98;;;;;;;24.28;60.79;98834.00;4140594;28;20609;-46
2023/09/28 08:35:24;;;;;;;2.25;0.82;;;;;;;24.08;59.18;98831.88;4144359;28;20256;-47
2023/09/28 08:37:28;;;;;;;1.50;0.98;;;;;;;23.49;61.49;98840.19;4135574;28;20202;-49
2023/09/28 08:39:31;;;;;;;1.50;0.88;;;;;;;23.19;61.67;98834.69;4145016;28;20306;-46
2023/09/28 08:41:47;;;;;;;0.73;0.70;;;;;;;23.39;61.94;98842.47;4144207;28;20212;-47
2023/09/28 08:43:56;;;;;;;4.13;1.02;;;;;;;23.18;61.24;98841.41;4138299;28;20205;-45
2023/09/28 08:46:01;;;;;;;3.50;1.17;;;;;;;24.27;61.04;98842.72;4143662;28;20279;-46
2023/09/28 08:48:06;;;;;;;3.10;1.45;;;;;;;23.98;60.05;98848.13;4140940;28;20205;-45
2023/09/28 08:50:12;;;;;;;2.03;0.93;;;;;;;24.14;58.84;98841.72;4145944;28;20644;-47
2023/09/28 08:52:18;;;;;;;2.53;1.20;;;;;;;24.18;59.42;98848.31;4122289;28;20212;-46
2023/09/28 08:54:22;;;;;;;0.70;0.68;;;;;;;23.89;58.83;98843.72;4151887;28;20224;-47
2023/09/28 08:56:30;;;;;;;1.58;1.17;;;;;;;23.69;60.38;98842.34;4143626;28;20229;-45
2023/09/28 08:58:36;;;;;;;1.25;0.90;;;;;;;24.36;60.16;98838.75;4144747;28;20259;-46
2023/09/28 09:00:39;;;;;;;1.65;1.00;;;;;;;24.72;59.58;98841.19;4151611;28;20217;-47
2023/09/28 09:02:44;;;;;;;2.58;1.40;;;;;;;24.48;58.35;98841.69;4133571;28;20579;-46
2023/09/28 09:04:46;;;;;;;1.02;0.90;;;;;;;24.03;59.13;98834.84;4130712;28;20236;-45
2023/09/28 09:06:47;;;;;;;1.33;1.10;;;;;;;24.25;59.11;98831.84;4136630;28;20212;-47
2023/09/28 09:08:50;;;;;;;0.82;0.80;;;;;;;24.96;58.44;98842.22;4139825;28;20274;-46
2023/09/28 09:10:52;;;;;;;1.35;0.80;;;;;;;25.24;56.59;98831.41;4151818;28;20215;-45
2023/09/28 09:12:55;;;;;;;1.55;0.80;;;;;;;24.57;57.23;98831.31;4134598;28;20205;-45
2023/09/28 09:15:00;;;;;;;1.95;0.70;;;;;;;24.36;58.08;98819.16;4134927;28;20209;-45
2023/09/28 09:17:02;;;;;;;0.60;0.60;;;;;;;24.48;57.90;98827.72;4135814;28;20315;-45
2023/09/28 09:19:04;;;;;;;1.95;1.58;;;;;;;24.08;57.36;98820.69;4154511;28;20204;-45
2023/09/28 09:21:07;;;;;;;1.27;0.90;;;;;;;24.23;58.13;98817.38;4148452;28;20251;-45
2023/09/28 09:23:17;;;;;;;1.15;0.65;;;;;;;24.50;57.29;98822.59;4151010;28;20755;-45
2023/09/28 09:25:19;;;;;;;0.70;0.63;;;;;;;25.08;57.60;98817.13;4152443;28;20232;-44
2023/09/28 09:27:28;;;;;;;0.75;0.75;;;;;;;25.80;55.98;98814.88;4150457;28;20212;-44
2023/09/28 09:29:33;;;;;;;1.52;0.98;;;;;;;25.11;56.92;98813.66;4135192;28;20328;-46
2023/09/28 09:31:42;;;;;;;1.15;0.88;;;;;;;26.13;55.42;98815.78;4130956;28;20217;-46
2023/09/28 09:33:44;;;;;;;1.08;0.90;;;;;;;25.57;54.98;98807.97;4147872;28;20220;-45